Terminal Aerodrome Forecast
Issued by NWS Brownsville, TX

Home | Current Version | Previous Version | Text Only | Print | Product List | Glossary On
Versions: 1 2 3 4 5 6 7 8 9 10 11 12 13 14 15 16 17 18 19 20 21 22 23 24 25 26 27 28 29 30 31 32 33
000
FTUS44 KBRO 011120
TAFHRL
TAF
KHRL 011120Z 0112/0212 00000KT P6SM VCSH SCT050 BKN250
     FM011800 10006KT P6SM VCTS SCT030CB BKN050 OVC100 PROB30
      0121/0124 P6SM -TSRA BKN030CB
     FM020300 14005KT P6SM BKN250=

USA.gov is the U.S. government's official web portal to all federal, state and local government web resources and services.